sensor_id;sensor_type;location;lat;lon;timestamp;temperature;humidity
23116;DHT22;11727;52.134;5.052;2023-02-28T00:00:21;1.80;99.90
23116;DHT22;11727;52.134;5.052;2023-02-28T00:02:47;1.90;99.90
23116;DHT22;11727;52.134;5.052;2023-02-28T00:05:15;1.90;99.90
23116;DHT22;11727;52.134;5.052;2023-02-28T00:07:41;2.00;99.90
23116;DHT22;11727;52.134;5.052;2023-02-28T00:10:11;2.00;99.90
23116;DHT22;11727;52.134;5.052;2023-02-28T00:12:37;2.10;99.90
23116;DHT22;11727;52.134;5.052;2023-02-28T00:15:10;2.10;99.90
23116;DHT22;11727;52.134;5.052;2023-02-28T00:17:36;2.10;99.90
23116;DHT22;11727;52.134;5.052;2023-02-28T00:20:03;2.10;99.90
23116;DHT22;11727;52.134;5.052;2023-02-28T00:22:36;2.20;99.90
23116;DHT22;11727;52.134;5.052;2023-02-28T00:25:03;2.20;99.90
23116;DHT22;11727;52.134;5.052;2023-02-28T00:27:29;2.30;99.90
23116;DHT22;11727;52.134;5.052;2023-02-28T00:29:55;2.30;99.90
23116;DHT22;11727;52.134;5.052;2023-02-28T00:32:21;2.30;99.90
23116;DHT22;11727;52.134;5.052;2023-02-28T00:34:46;2.40;99.90
23116;DHT22;11727;52.134;5.052;2023-02-28T00:37:12;2.40;99.90
23116;DHT22;11727;52.134;5.052;2023-02-28T00:39:38;2.50;99.90
23116;DHT22;11727;52.134;5.052;2023-02-28T00:42:04;2.50;99.90
23116;DHT22;11727;52.134;5.052;2023-02-28T00:44:31;2.50;99.90
23116;DHT22;11727;52.134;5.052;2023-02-28T00:46:57;2.50;99.90
23116;DHT22;11727;52.134;5.052;2023-02-28T00:49:24;2.50;99.90
23116;DHT22;11727;52.134;5.052;2023-02-28T00:51:50;2.50;99.90
23116;DHT22;11727;52.134;5.052;2023-02-28T00:54:16;2.60;99.90
23116;DHT22;11727;52.134;5.052;2023-02-28T00:56:42;2.60;99.90
23116;DHT22;11727;52.134;5.052;2023-02-28T00:59:07;2.70;99.90
23116;DHT22;11727;52.134;5.052;2023-02-28T01:01:33;2.70;99.90
23116;DHT22;11727;52.134;5.052;2023-02-28T01:03:59;2.70;99.90
23116;DHT22;11727;52.134;5.052;2023-02-28T01:06:25;2.70;99.90
23116;DHT22;11727;52.134;5.052;2023-02-28T01:08:50;2.80;99.90
23116;DHT22;11727;52.134;5.052;2023-02-28T01:11:17;2.80;99.90
23116;DHT22;11727;52.134;5.052;2023-02-28T01:13:44;2.80;99.90
23116;DHT22;11727;52.134;5.052;2023-02-28T01:16:10;2.80;99.90
23116;DHT22;11727;52.134;5.052;2023-02-28T01:18:36;2.90;99.90
23116;DHT22;11727;52.134;5.052;2023-02-28T01:21:11;2.90;99.90
23116;DHT22;11727;52.134;5.052;2023-02-28T01:23:38;2.90;99.90
23116;DHT22;11727;52.134;5.052;2023-02-28T01:26:08;2.90;99.90
23116;DHT22;11727;52.134;5.052;2023-02-28T01:28:34;3.00;99.90
23116;DHT22;11727;52.134;5.052;2023-02-28T01:31:00;2.90;99.90
23116;DHT22;11727;52.134;5.052;2023-02-28T01:33:26;3.00;99.90
23116;DHT22;11727;52.134;5.052;2023-02-28T01:36:03;3.00;99.90
23116;DHT22;11727;52.134;5.052;2023-02-28T01:38:29;3.00;99.90
23116;DHT22;11727;52.134;5.052;2023-02-28T01:40:54;3.10;99.90
23116;DHT22;11727;52.134;5.052;2023-02-28T01:43:29;3.10;99.90
23116;DHT22;11727;52.134;5.052;2023-02-28T01:45:56;3.10;99.90
23116;DHT22;11727;52.134;5.052;2023-02-28T01:48:26;3.10;99.90
23116;DHT22;11727;52.134;5.052;2023-02-28T01:50:53;3.10;99.90
23116;DHT22;11727;52.134;5.052;2023-02-28T01:53:26;3.10;99.90
23116;DHT22;11727;52.134;5.052;2023-02-28T01:55:54;3.10;99.90
23116;DHT22;11727;52.134;5.052;2023-02-28T01:58:20;3.10;99.90
23116;DHT22;11727;52.134;5.052;2023-02-28T02:00:46;3.20;99.90
23116;DHT22;11727;52.134;5.052;2023-02-28T02:03:15;3.20;99.90
23116;DHT22;11727;52.134;5.052;2023-02-28T02:05:44;3.20;99.90
23116;DHT22;11727;52.134;5.052;2023-02-28T02:08:16;3.20;99.90
23116;DHT22;11727;52.134;5.052;2023-02-28T02:10:49;3.20;99.90
23116;DHT22;11727;52.134;5.052;2023-02-28T02:18:52;3.30;99.90
23116;DHT22;11727;52.134;5.052;2023-02-28T02:30:08;3.30;99.90
23116;DHT22;11727;52.134;5.052;2023-02-28T02:35:24;3.30;99.90
23116;DHT22;11727;52.134;5.052;2023-02-28T02:37:59;3.30;99.90
23116;DHT22;11727;52.134;5.052;2023-02-28T02:40:32;3.30;99.90
23116;DHT22;11727;52.134;5.052;2023-02-28T02:43:19;3.30;99.90
23116;DHT22;11727;52.134;5.052;2023-02-28T02:45:53;3.30;99.90
23116;DHT22;11727;52.134;5.052;2023-02-28T02:48:25;3.30;99.90
23116;DHT22;11727;52.134;5.052;2023-02-28T02:50:55;3.30;99.90
23116;DHT22;11727;52.134;5.052;2023-02-28T02:53:27;3.30;99.90
23116;DHT22;11727;52.134;5.052;2023-02-28T02:55:55;3.30;99.90
23116;DHT22;11727;52.134;5.052;2023-02-28T02:58:27;3.30;99.90
23116;DHT22;11727;52.134;5.052;2023-02-28T03:00:57;3.30;99.90
23116;DHT22;11727;52.134;5.052;2023-02-28T03:03:25;3.30;99.90
23116;DHT22;11727;52.134;5.052;2023-02-28T03:05:56;3.30;99.90
23116;DHT22;11727;52.134;5.052;2023-02-28T03:08:22;3.30;99.90
23116;DHT22;11727;52.134;5.052;2023-02-28T03:10:55;3.30;99.90
23116;DHT22;11727;52.134;5.052;2023-02-28T03:19:23;3.30;99.90
23116;DHT22;11727;52.134;5.052;2023-02-28T03:21:54;3.30;99.90
23116;DHT22;11727;52.134;5.052;2023-02-28T03:24:32;3.40;99.90
23116;DHT22;11727;52.134;5.052;2023-02-28T03:27:12;3.40;99.90
23116;DHT22;11727;52.134;5.052;2023-02-28T03:29:52;3.30;99.90
23116;DHT22;11727;52.134;5.052;2023-02-28T03:35:16;3.40;99.90
23116;DHT22;11727;52.134;5.052;2023-02-28T03:37:49;3.40;99.90
23116;DHT22;11727;52.134;5.052;2023-02-28T03:40:24;3.50;99.90
23116;DHT22;11727;52.134;5.052;2023-02-28T03:42:55;3.50;99.90
23116;DHT22;11727;52.134;5.052;2023-02-28T03:45:26;3.50;99.90
23116;DHT22;11727;52.134;5.052;2023-02-28T03:48:01;3.50;99.90
23116;DHT22;11727;52.134;5.052;2023-02-28T03:50:36;3.50;99.90
23116;DHT22;11727;52.134;5.052;2023-02-28T03:53:21;3.50;99.90
23116;DHT22;11727;52.134;5.052;2023-02-28T03:55:55;3.50;99.90
23116;DHT22;11727;52.134;5.052;2023-02-28T04:01:44;3.50;99.90
23116;DHT22;11727;52.134;5.052;2023-02-28T04:04:11;3.50;99.90
23116;DHT22;11727;52.134;5.052;2023-02-28T04:06:37;3.50;99.90
23116;DHT22;11727;52.134;5.052;2023-02-28T04:09:04;3.50;99.90
23116;DHT22;11727;52.134;5.052;2023-02-28T04:11:44;3.40;99.90
23116;DHT22;11727;52.134;5.052;2023-02-28T04:14:11;3.50;99.90
23116;DHT22;11727;52.134;5.052;2023-02-28T04:16:39;3.40;99.90
23116;DHT22;11727;52.134;5.052;2023-02-28T04:19:06;3.50;99.90
23116;DHT22;11727;52.134;5.052;2023-02-28T04:21:37;3.40;99.90
23116;DHT22;11727;52.134;5.052;2023-02-28T04:24:07;3.40;99.90
23116;DHT22;11727;52.134;5.052;2023-02-28T04:26:35;3.40;99.90
23116;DHT22;11727;52.134;5.052;2023-02-28T04:29:02;3.30;99.90
23116;DHT22;11727;52.134;5.052;2023-02-28T04:31:28;3.30;99.90
23116;DHT22;11727;52.134;5.052;2023-02-28T04:33:54;3.20;99.90
23116;DHT22;11727;52.134;5.052;2023-02-28T04:36:19;3.20;99.90
23116;DHT22;11727;52.134;5.052;2023-02-28T04:38:46;3.20;99.90
23116;DHT22;11727;52.134;5.052;2023-02-28T04:41:15;3.20;99.90
23116;DHT22;11727;52.134;5.052;2023-02-28T04:43:41;3.20;99.90
23116;DHT22;11727;52.134;5.052;2023-02-28T04:46:08;3.10;99.90
23116;DHT22;11727;52.134;5.052;2023-02-28T04:48:36;3.10;99.90
23116;DHT22;11727;52.134;5.052;2023-02-28T04:51:08;3.00;99.90
23116;DHT22;11727;52.134;5.052;2023-02-28T04:53:34;3.00;99.90
23116;DHT22;11727;52.134;5.052;2023-02-28T04:56:00;3.10;99.90
23116;DHT22;11727;52.134;5.052;2023-02-28T04:58:26;3.00;99.90
23116;DHT22;11727;52.134;5.052;2023-02-28T05:00:54;3.10;99.90
23116;DHT22;11727;52.134;5.052;2023-02-28T05:03:20;3.00;99.90
23116;DHT22;11727;52.134;5.052;2023-02-28T05:05:47;3.00;99.90
23116;DHT22;11727;52.134;5.052;2023-02-28T05:08:13;3.00;99.90
23116;DHT22;11727;52.134;5.052;2023-02-28T05:10:39;3.00;99.90
23116;DHT22;11727;52.134;5.052;2023-02-28T05:13:04;3.00;99.90
23116;DHT22;11727;52.134;5.052;2023-02-28T05:15:30;2.90;99.90
23116;DHT22;11727;52.134;5.052;2023-02-28T05:17:56;2.90;99.90
23116;DHT22;11727;52.134;5.052;2023-02-28T05:20:21;3.00;99.90
23116;DHT22;11727;52.134;5.052;2023-02-28T05:22:47;2.90;99.90
23116;DHT22;11727;52.134;5.052;2023-02-28T05:25:19;2.90;99.90
23116;DHT22;11727;52.134;5.052;2023-02-28T05:27:45;2.90;99.90
23116;DHT22;11727;52.134;5.052;2023-02-28T05:30:11;2.90;99.90
23116;DHT22;11727;52.134;5.052;2023-02-28T05:32:38;2.80;99.90
23116;DHT22;11727;52.134;5.052;2023-02-28T05:35:04;2.90;99.90
23116;DHT22;11727;52.134;5.052;2023-02-28T05:37:30;2.80;99.90
23116;DHT22;11727;52.134;5.052;2023-02-28T05:39:56;2.90;99.90
23116;DHT22;11727;52.134;5.052;2023-02-28T05:42:21;2.80;99.90
23116;DHT22;11727;52.134;5.052;2023-02-28T05:44:47;2.80;99.90
23116;DHT22;11727;52.134;5.052;2023-02-28T05:47:12;2.80;99.90
23116;DHT22;11727;52.134;5.052;2023-02-28T05:49:41;2.80;99.90
23116;DHT22;11727;52.134;5.052;2023-02-28T05:52:07;2.70;99.90
23116;DHT22;11727;52.134;5.052;2023-02-28T05:54:32;2.70;99.90
23116;DHT22;11727;52.134;5.052;2023-02-28T05:56:58;2.70;99.90
23116;DHT22;11727;52.134;5.052;2023-02-28T05:59:23;2.70;99.90
23116;DHT22;11727;52.134;5.052;2023-02-28T06:01:49;2.60;99.90
23116;DHT22;11727;52.134;5.052;2023-02-28T06:04:17;2.60;99.90
23116;DHT22;11727;52.134;5.052;2023-02-28T06:06:49;2.60;99.90
23116;DHT22;11727;52.134;5.052;2023-02-28T06:09:15;2.60;99.90
23116;DHT22;11727;52.134;5.052;2023-02-28T06:11:41;2.60;99.90
23116;DHT22;11727;52.134;5.052;2023-02-28T06:14:07;2.60;99.90
23116;DHT22;11727;52.134;5.052;2023-02-28T06:16:37;2.50;99.90
23116;DHT22;11727;52.134;5.052;2023-02-28T06:19:03;2.60;99.90
23116;DHT22;11727;52.134;5.052;2023-02-28T06:21:29;2.60;99.90
23116;DHT22;11727;52.134;5.052;2023-02-28T06:23:56;2.50;99.90
23116;DHT22;11727;52.134;5.052;2023-02-28T06:26:23;2.40;99.90
23116;DHT22;11727;52.134;5.052;2023-02-28T06:28:49;2.30;99.90
23116;DHT22;11727;52.134;5.052;2023-02-28T06:31:16;2.30;99.90
23116;DHT22;11727;52.134;5.052;2023-02-28T06:33:44;2.20;99.90
23116;DHT22;11727;52.134;5.052;2023-02-28T06:36:11;2.10;99.90
23116;DHT22;11727;52.134;5.052;2023-02-28T06:38:38;2.00;99.90
23116;DHT22;11727;52.134;5.052;2023-02-28T06:41:04;1.90;99.90
23116;DHT22;11727;52.134;5.052;2023-02-28T06:43:32;1.80;99.90
23116;DHT22;11727;52.134;5.052;2023-02-28T06:46:03;1.70;99.90
23116;DHT22;11727;52.134;5.052;2023-02-28T06:48:30;1.60;99.90
23116;DHT22;11727;52.134;5.052;2023-02-28T06:51:11;1.60;99.90
23116;DHT22;11727;52.134;5.052;2023-02-28T06:53:38;1.50;99.90
23116;DHT22;11727;52.134;5.052;2023-02-28T06:56:09;1.40;99.90
23116;DHT22;11727;52.134;5.052;2023-02-28T06:58:36;1.40;99.90
23116;DHT22;11727;52.134;5.052;2023-02-28T07:01:03;1.40;99.90
23116;DHT22;11727;52.134;5.052;2023-02-28T07:03:29;1.30;99.90
23116;DHT22;11727;52.134;5.052;2023-02-28T07:05:55;1.30;99.90
23116;DHT22;11727;52.134;5.052;2023-02-28T07:08:22;1.30;99.90
23116;DHT22;11727;52.134;5.052;2023-02-28T07:10:52;1.30;99.90
23116;DHT22;11727;52.134;5.052;2023-02-28T07:13:17;1.30;99.90
23116;DHT22;11727;52.134;5.052;2023-02-28T07:15:43;1.30;99.90
23116;DHT22;11727;52.134;5.052;2023-02-28T07:18:08;1.30;99.90
23116;DHT22;11727;52.134;5.052;2023-02-28T07:20:35;1.30;99.90
23116;DHT22;11727;52.134;5.052;2023-02-28T07:23:00;1.40;99.90
23116;DHT22;11727;52.134;5.052;2023-02-28T07:25:27;1.40;99.90
23116;DHT22;11727;52.134;5.052;2023-02-28T07:27:56;1.40;99.90
23116;DHT22;11727;52.134;5.052;2023-02-28T07:30:22;1.40;99.90
23116;DHT22;11727;52.134;5.052;2023-02-28T07:32:47;1.40;99.90
23116;DHT22;11727;52.134;5.052;2023-02-28T07:35:13;1.50;99.90
23116;DHT22;11727;52.134;5.052;2023-02-28T07:37:41;1.50;99.90
23116;DHT22;11727;52.134;5.052;2023-02-28T07:40:09;1.60;99.90
23116;DHT22;11727;52.134;5.052;2023-02-28T07:42:37;1.60;99.90
23116;DHT22;11727;52.134;5.052;2023-02-28T07:45:05;1.70;99.90
23116;DHT22;11727;52.134;5.052;2023-02-28T07:47:31;1.70;99.90
23116;DHT22;11727;52.134;5.052;2023-02-28T07:49:57;1.80;99.90
23116;DHT22;11727;52.134;5.052;2023-02-28T07:52:24;1.80;99.90
23116;DHT22;11727;52.134;5.052;2023-02-28T07:54:53;1.90;99.90
23116;DHT22;11727;52.134;5.052;2023-02-28T07:57:18;2.00;99.90
23116;DHT22;11727;52.134;5.052;2023-02-28T07:59:44;2.00;99.90
23116;DHT22;11727;52.134;5.052;2023-02-28T08:02:14;2.10;99.90
23116;DHT22;11727;52.134;5.052;2023-02-28T08:04:40;2.20;99.90
23116;DHT22;11727;52.134;5.052;2023-02-28T08:07:06;2.20;99.90
23116;DHT22;11727;52.134;5.052;2023-02-28T08:09:33;2.20;99.90
23116;DHT22;11727;52.134;5.052;2023-02-28T08:11:59;2.30;99.90
23116;DHT22;11727;52.134;5.052;2023-02-28T08:14:25;2.30;99.90
23116;DHT22;11727;52.134;5.052;2023-02-28T08:16:51;2.30;99.90
23116;DHT22;11727;52.134;5.052;2023-02-28T08:19:16;2.20;99.90
23116;DHT22;11727;52.134;5.052;2023-02-28T08:21:42;2.20;99.90
23116;DHT22;11727;52.134;5.052;2023-02-28T08:24:07;2.10;99.90
23116;DHT22;11727;52.134;5.052;2023-02-28T08:26:33;2.10;99.90
23116;DHT22;11727;52.134;5.052;2023-02-28T08:28:59;2.20;99.90
23116;DHT22;11727;52.134;5.052;2023-02-28T08:31:24;2.20;99.90
23116;DHT22;11727;52.134;5.052;2023-02-28T08:33:50;2.20;99.90
23116;DHT22;11727;52.134;5.052;2023-02-28T08:36:17;2.20;99.90
23116;DHT22;11727;52.134;5.052;2023-02-28T08:38:43;2.30;99.90
23116;DHT22;11727;52.134;5.052;2023-02-28T08:41:10;2.30;99.90
23116;DHT22;11727;52.134;5.052;2023-02-28T08:43:37;2.40;99.90
23116;DHT22;11727;52.134;5.052;2023-02-28T08:46:03;2.40;99.90
23116;DHT22;11727;52.134;5.052;2023-02-28T08:48:31;2.40;99.90
23116;DHT22;11727;52.134;5.052;2023-02-28T08:51:02;2.50;99.90
23116;DHT22;11727;52.134;5.052;2023-02-28T08:53:29;2.60;99.90
23116;DHT22;11727;52.134;5.052;2023-02-28T08:55:56;2.70;99.90
23116;DHT22;11727;52.134;5.052;2023-02-28T08:58:22;2.80;99.90
23116;DHT22;11727;52.134;5.052;2023-02-28T09:00:48;2.80;99.90
23116;DHT22;11727;52.134;5.052;2023-02-28T09:03:13;2.80;99.90
23116;DHT22;11727;52.134;5.052;2023-02-28T09:05:39;2.90;99.90
23116;DHT22;11727;52.134;5.052;2023-02-28T09:08:04;2.90;99.90
23116;DHT22;11727;52.134;5.052;2023-02-28T09:10:30;3.00;99.90
23116;DHT22;11727;52.134;5.052;2023-02-28T09:12:55;3.10;99.90
23116;DHT22;11727;52.134;5.052;2023-02-28T09:15:21;3.20;99.90
23116;DHT22;11727;52.134;5.052;2023-02-28T09:17:47;3.10;99.90
23116;DHT22;11727;52.134;5.052;2023-02-28T09:20:12;3.10;99.90
23116;DHT22;11727;52.134;5.052;2023-02-28T09:22:38;3.10;99.90
23116;DHT22;11727;52.134;5.052;2023-02-28T09:25:04;3.10;99.90
23116;DHT22;11727;52.134;5.052;2023-02-28T09:27:30;3.10;99.90
23116;DHT22;11727;52.134;5.052;2023-02-28T09:29:55;3.20;99.90
23116;DHT22;11727;52.134;5.052;2023-02-28T09:32:21;3.20;99.90
23116;DHT22;11727;52.134;5.052;2023-02-28T09:34:46;3.20;99.90
23116;DHT22;11727;52.134;5.052;2023-02-28T09:37:12;3.30;99.90
23116;DHT22;11727;52.134;5.052;2023-02-28T09:39:37;3.30;99.90
23116;DHT22;11727;52.134;5.052;2023-02-28T09:42:04;3.40;99.90
23116;DHT22;11727;52.134;5.052;2023-02-28T09:44:37;3.50;99.90
23116;DHT22;11727;52.134;5.052;2023-02-28T09:47:27;3.60;99.90
23116;DHT22;11727;52.134;5.052;2023-02-28T09:49:58;3.60;99.90
23116;DHT22;11727;52.134;5.052;2023-02-28T09:52:29;3.60;99.90
23116;DHT22;11727;52.134;5.052;2023-02-28T09:54:56;3.60;99.90
23116;DHT22;11727;52.134;5.052;2023-02-28T09:57:38;3.60;99.90
23116;DHT22;11727;52.134;5.052;2023-02-28T10:00:13;3.60;99.90
23116;DHT22;11727;52.134;5.052;2023-02-28T10:03:08;3.70;99.90
23116;DHT22;11727;52.134;5.052;2023-02-28T10:11:36;4.00;99.90
23116;DHT22;11727;52.134;5.052;2023-02-28T10:14:10;3.90;99.90
23116;DHT22;11727;52.134;5.052;2023-02-28T10:16:42;3.90;99.90
23116;DHT22;11727;52.134;5.052;2023-02-28T10:21:57;3.90;99.90
23116;DHT22;11727;52.134;5.052;2023-02-28T10:24:32;4.00;99.90
23116;DHT22;11727;52.134;5.052;2023-02-28T10:27:13;4.10;99.90
23116;DHT22;11727;52.134;5.052;2023-02-28T10:29:42;4.20;99.90
23116;DHT22;11727;52.134;5.052;2023-02-28T10:32:11;4.40;99.90
23116;DHT22;11727;52.134;5.052;2023-02-28T10:34:39;4.50;99.90
23116;DHT22;11727;52.134;5.052;2023-02-28T10:37:04;4.60;99.90
23116;DHT22;11727;52.134;5.052;2023-02-28T10:39:39;4.70;99.90
23116;DHT22;11727;52.134;5.052;2023-02-28T10:42:25;4.90;99.90
23116;DHT22;11727;52.134;5.052;2023-02-28T10:45:14;5.20;99.90
23116;DHT22;11727;52.134;5.052;2023-02-28T11:01:17;5.70;99.90
23116;DHT22;11727;52.134;5.052;2023-02-28T11:03:43;5.80;99.90
23116;DHT22;11727;52.134;5.052;2023-02-28T11:06:33;5.70;99.90
23116;DHT22;11727;52.134;5.052;2023-02-28T11:09:02;5.80;99.90
23116;DHT22;11727;52.134;5.052;2023-02-28T11:11:30;5.70;99.90
23116;DHT22;11727;52.134;5.052;2023-02-28T11:14:05;5.60;99.90
23116;DHT22;11727;52.134;5.052;2023-02-28T11:16:36;5.70;99.90
23116;DHT22;11727;52.134;5.052;2023-02-28T11:19:04;5.70;99.90
23116;DHT22;11727;52.134;5.052;2023-02-28T11:21:36;5.80;99.90
23116;DHT22;11727;52.134;5.052;2023-02-28T11:24:40;6.00;99.90
23116;DHT22;11727;52.134;5.052;2023-02-28T11:29:56;7.10;99.90
23116;DHT22;11727;52.134;5.052;2023-02-28T11:32:29;7.30;99.90
23116;DHT22;11727;52.134;5.052;2023-02-28T11:35:03;7.60;99.90
23116;DHT22;11727;52.134;5.052;2023-02-28T11:37:31;7.70;99.90
23116;DHT22;11727;52.134;5.052;2023-02-28T11:39:57;7.90;99.90
23116;DHT22;11727;52.134;5.052;2023-02-28T11:48:20;8.20;99.90
23116;DHT22;11727;52.134;5.052;2023-02-28T11:53:53;8.50;99.90
23116;DHT22;11727;52.134;5.052;2023-02-28T11:56:36;8.40;99.90
23116;DHT22;11727;52.134;5.052;2023-02-28T12:10:25;8.10;99.90
23116;DHT22;11727;52.134;5.052;2023-02-28T12:13:01;8.10;99.90
23116;DHT22;11727;52.134;5.052;2023-02-28T12:26:23;7.80;99.90
23116;DHT22;11727;52.134;5.052;2023-02-28T12:32:16;7.70;99.90
23116;DHT22;11727;52.134;5.052;2023-02-28T12:34:45;7.60;99.90
23116;DHT22;11727;52.134;5.052;2023-02-28T12:37:36;7.50;99.90
23116;DHT22;11727;52.134;5.052;2023-02-28T12:40:19;7.40;99.90
23116;DHT22;11727;52.134;5.052;2023-02-28T12:42:57;7.60;99.90
23116;DHT22;11727;52.134;5.052;2023-02-28T12:45:24;7.60;99.90
23116;DHT22;11727;52.134;5.052;2023-02-28T12:47:55;7.80;99.90
23116;DHT22;11727;52.134;5.052;2023-02-28T12:50:23;7.70;99.90
23116;DHT22;11727;52.134;5.052;2023-02-28T12:55:45;7.80;99.90
23116;DHT22;11727;52.134;5.052;2023-02-28T12:58:56;7.80;99.90
23116;DHT22;11727;52.134;5.052;2023-02-28T13:01:36;7.90;99.90
23116;DHT22;11727;52.134;5.052;2023-02-28T13:10:12;8.00;99.90
23116;DHT22;11727;52.134;5.052;2023-02-28T13:12:54;8.10;99.90
23116;DHT22;11727;52.134;5.052;2023-02-28T13:15:26;8.30;99.90
23116;DHT22;11727;52.134;5.052;2023-02-28T13:17:56;8.40;99.90
23116;DHT22;11727;52.134;5.052;2023-02-28T13:20:24;8.50;99.90
23116;DHT22;11727;52.134;5.052;2023-02-28T13:22:52;8.40;99.90
23116;DHT22;11727;52.134;5.052;2023-02-28T13:27:47;8.30;99.90
23116;DHT22;11727;52.134;5.052;2023-02-28T13:36:30;8.50;99.90
23116;DHT22;11727;52.134;5.052;2023-02-28T13:47:38;8.40;99.90
23116;DHT22;11727;52.134;5.052;2023-02-28T13:55:41;8.90;99.90
23116;DHT22;11727;52.134;5.052;2023-02-28T14:01:24;8.80;99.90
23116;DHT22;11727;52.134;5.052;2023-02-28T14:03:58;8.80;99.90
23116;DHT22;11727;52.134;5.052;2023-02-28T14:06:31;8.70;99.90
23116;DHT22;11727;52.134;5.052;2023-02-28T14:11:45;8.90;99.90
23116;DHT22;11727;52.134;5.052;2023-02-28T14:17:03;9.10;99.90
23116;DHT22;11727;52.134;5.052;2023-02-28T14:19:31;9.10;99.90
23116;DHT22;11727;52.134;5.052;2023-02-28T14:36:04;8.80;99.90
23116;DHT22;11727;52.134;5.052;2023-02-28T14:38:39;8.70;99.90
23116;DHT22;11727;52.134;5.052;2023-02-28T14:41:20;8.80;99.90
23116;DHT22;11727;52.134;5.052;2023-02-28T14:43:54;8.80;99.90
23116;DHT22;11727;52.134;5.052;2023-02-28T14:46:21;8.90;99.90
23116;DHT22;11727;52.134;5.052;2023-02-28T14:48:49;8.60;99.90
23116;DHT22;11727;52.134;5.052;2023-02-28T14:51:20;8.60;99.90
23116;DHT22;11727;52.134;5.052;2023-02-28T14:53:50;8.60;99.90
23116;DHT22;11727;52.134;5.052;2023-02-28T14:56:25;8.70;99.90
23116;DHT22;11727;52.134;5.052;2023-02-28T14:58:55;8.70;99.90
23116;DHT22;11727;52.134;5.052;2023-02-28T15:01:23;8.70;99.90
23116;DHT22;11727;52.134;5.052;2023-02-28T15:03:56;8.60;99.90
23116;DHT22;11727;52.134;5.052;2023-02-28T15:06:22;8.50;99.90
23116;DHT22;11727;52.134;5.052;2023-02-28T15:09:07;8.40;99.90
23116;DHT22;11727;52.134;5.052;2023-02-28T15:11:33;8.20;99.90
23116;DHT22;11727;52.134;5.052;2023-02-28T15:14:00;8.10;99.90
23116;DHT22;11727;52.134;5.052;2023-02-28T15:16:37;8.10;99.90
23116;DHT22;11727;52.134;5.052;2023-02-28T15:19:14;8.10;99.90
23116;DHT22;11727;52.134;5.052;2023-02-28T15:21:44;8.00;99.90
23116;DHT22;11727;52.134;5.052;2023-02-28T15:26:43;8.00;99.90
23116;DHT22;11727;52.134;5.052;2023-02-28T15:29:19;7.90;99.90
23116;DHT22;11727;52.134;5.052;2023-02-28T15:32:00;8.00;99.90
23116;DHT22;11727;52.134;5.052;2023-02-28T15:34:35;8.00;99.90
23116;DHT22;11727;52.134;5.052;2023-02-28T15:37:23;8.00;99.90
23116;DHT22;11727;52.134;5.052;2023-02-28T15:39:50;8.00;99.90
23116;DHT22;11727;52.134;5.052;2023-02-28T15:42:20;7.90;99.90
23116;DHT22;11727;52.134;5.052;2023-02-28T15:44:46;7.80;99.90
23116;DHT22;11727;52.134;5.052;2023-02-28T15:47:20;7.80;99.90
23116;DHT22;11727;52.134;5.052;2023-02-28T15:49:51;7.70;99.90
23116;DHT22;11727;52.134;5.052;2023-02-28T15:52:27;7.60;99.90
23116;DHT22;11727;52.134;5.052;2023-02-28T15:54:54;7.60;99.90
23116;DHT22;11727;52.134;5.052;2023-02-28T15:57:23;7.60;99.90
23116;DHT22;11727;52.134;5.052;2023-02-28T16:00:02;7.40;99.90
23116;DHT22;11727;52.134;5.052;2023-02-28T16:02:37;7.30;99.90
23116;DHT22;11727;52.134;5.052;2023-02-28T16:05:27;7.20;99.90
23116;DHT22;11727;52.134;5.052;2023-02-28T16:08:15;7.20;99.90
23116;DHT22;11727;52.134;5.052;2023-02-28T16:10:41;7.10;99.90
23116;DHT22;11727;52.134;5.052;2023-02-28T16:13:08;7.00;99.90
23116;DHT22;11727;52.134;5.052;2023-02-28T16:15:38;6.90;99.90
23116;DHT22;11727;52.134;5.052;2023-02-28T16:18:09;6.80;99.90
23116;DHT22;11727;52.134;5.052;2023-02-28T16:20:35;6.80;99.90
23116;DHT22;11727;52.134;5.052;2023-02-28T16:23:01;6.70;99.90
23116;DHT22;11727;52.134;5.052;2023-02-28T16:25:36;6.50;99.90
23116;DHT22;11727;52.134;5.052;2023-02-28T16:28:02;6.50;99.90
23116;DHT22;11727;52.134;5.052;2023-02-28T16:30:29;6.40;99.90
23116;DHT22;11727;52.134;5.052;2023-02-28T16:32:58;6.30;99.90
23116;DHT22;11727;52.134;5.052;2023-02-28T16:35:24;6.20;99.90
23116;DHT22;11727;52.134;5.052;2023-02-28T16:37:53;6.20;99.90
23116;DHT22;11727;52.134;5.052;2023-02-28T16:40:22;6.10;99.90
23116;DHT22;11727;52.134;5.052;2023-02-28T16:42:53;6.10;99.90
23116;DHT22;11727;52.134;5.052;2023-02-28T16:45:24;6.00;99.90
23116;DHT22;11727;52.134;5.052;2023-02-28T16:47:50;5.90;99.90
23116;DHT22;11727;52.134;5.052;2023-02-28T16:50:22;5.90;99.90
23116;DHT22;11727;52.134;5.052;2023-02-28T16:52:48;5.80;99.90
23116;DHT22;11727;52.134;5.052;2023-02-28T16:55:15;5.70;99.90
23116;DHT22;11727;52.134;5.052;2023-02-28T16:57:43;5.70;99.90
23116;DHT22;11727;52.134;5.052;2023-02-28T17:00:12;5.60;99.90
23116;DHT22;11727;52.134;5.052;2023-02-28T17:02:38;5.50;99.90
23116;DHT22;11727;52.134;5.052;2023-02-28T17:05:04;5.40;99.90
23116;DHT22;11727;52.134;5.052;2023-02-28T17:07:30;5.40;99.90
23116;DHT22;11727;52.134;5.052;2023-02-28T17:09:56;5.30;99.90
23116;DHT22;11727;52.134;5.052;2023-02-28T17:12:21;5.20;99.90
23116;DHT22;11727;52.134;5.052;2023-02-28T17:14:47;5.20;99.90
23116;DHT22;11727;52.134;5.052;2023-02-28T17:17:18;5.10;99.90
23116;DHT22;11727;52.134;5.052;2023-02-28T17:19:45;5.00;99.90
23116;DHT22;11727;52.134;5.052;2023-02-28T17:22:11;4.90;99.90
23116;DHT22;11727;52.134;5.052;2023-02-28T17:24:36;4.90;99.90
23116;DHT22;11727;52.134;5.052;2023-02-28T17:27:02;4.80;99.90
23116;DHT22;11727;52.134;5.052;2023-02-28T17:29:28;4.80;99.90
23116;DHT22;11727;52.134;5.052;2023-02-28T17:31:54;4.80;99.90
23116;DHT22;11727;52.134;5.052;2023-02-28T17:34:21;4.70;99.90
23116;DHT22;11727;52.134;5.052;2023-02-28T17:36:49;4.60;99.90
23116;DHT22;11727;52.134;5.052;2023-02-28T17:39:17;4.60;99.90
23116;DHT22;11727;52.134;5.052;2023-02-28T17:41:55;4.50;99.90
23116;DHT22;11727;52.134;5.052;2023-02-28T17:44:22;4.50;99.90
23116;DHT22;11727;52.134;5.052;2023-02-28T17:46:49;4.40;99.90
23116;DHT22;11727;52.134;5.052;2023-02-28T17:49:15;4.30;99.90
23116;DHT22;11727;52.134;5.052;2023-02-28T17:51:41;4.30;99.90
23116;DHT22;11727;52.134;5.052;2023-02-28T17:54:07;4.30;99.90
23116;DHT22;11727;52.134;5.052;2023-02-28T17:56:32;4.20;99.90
23116;DHT22;11727;52.134;5.052;2023-02-28T17:59:01;4.20;99.90
23116;DHT22;11727;52.134;5.052;2023-02-28T18:01:26;4.10;99.90
23116;DHT22;11727;52.134;5.052;2023-02-28T18:03:53;4.10;99.90
23116;DHT22;11727;52.134;5.052;2023-02-28T18:06:25;4.00;99.90
23116;DHT22;11727;52.134;5.052;2023-02-28T18:08:53;3.90;99.90
23116;DHT22;11727;52.134;5.052;2023-02-28T18:11:21;3.90;99.90
23116;DHT22;11727;52.134;5.052;2023-02-28T18:13:50;3.80;99.90
23116;DHT22;11727;52.134;5.052;2023-02-28T18:16:17;3.90;99.90
23116;DHT22;11727;52.134;5.052;2023-02-28T18:18:43;3.80;99.90
23116;DHT22;11727;52.134;5.052;2023-02-28T18:21:11;3.80;99.90
23116;DHT22;11727;52.134;5.052;2023-02-28T18:23:36;3.70;99.90